sensor_id;sensor_type;location;lat;lon;timestamp;temperature;humidity
72440;DHT22;60446;50.752;4.352;2023-03-04T00:02:08;3.70;64.20
72440;DHT22;60446;50.752;4.352;2023-03-04T00:04:36;3.70;64.00
72440;DHT22;60446;50.752;4.352;2023-03-04T00:07:03;3.60;64.20
72440;DHT22;60446;50.752;4.352;2023-03-04T00:09:30;3.60;64.70
72440;DHT22;60446;50.752;4.352;2023-03-04T00:11:57;3.60;64.90
72440;DHT22;60446;50.752;4.352;2023-03-04T00:14:24;3.60;64.90
72440;DHT22;60446;50.752;4.352;2023-03-04T00:16:53;3.60;65.20
72440;DHT22;60446;50.752;4.352;2023-03-04T00:19:20;3.60;65.10
72440;DHT22;60446;50.752;4.352;2023-03-04T00:21:50;3.70;64.50
72440;DHT22;60446;50.752;4.352;2023-03-04T00:24:17;3.60;65.10
72440;DHT22;60446;50.752;4.352;2023-03-04T00:26:44;3.60;65.20
72440;DHT22;60446;50.752;4.352;2023-03-04T00:29:12;3.60;65.50
72440;DHT22;60446;50.752;4.352;2023-03-04T00:31:39;3.60;65.60
72440;DHT22;60446;50.752;4.352;2023-03-04T00:34:06;3.60;65.40
72440;DHT22;60446;50.752;4.352;2023-03-04T00:36:33;3.70;65.40
72440;DHT22;60446;50.752;4.352;2023-03-04T00:39:01;3.60;65.30
72440;DHT22;60446;50.752;4.352;2023-03-04T00:41:28;3.60;65.40
72440;DHT22;60446;50.752;4.352;2023-03-04T00:43:55;3.60;66.00
72440;DHT22;60446;50.752;4.352;2023-03-04T00:46:22;3.60;65.80
72440;DHT22;60446;50.752;4.352;2023-03-04T00:48:50;3.60;65.50
72440;DHT22;60446;50.752;4.352;2023-03-04T00:51:17;3.60;65.60
72440;DHT22;60446;50.752;4.352;2023-03-04T00:53:44;3.60;65.70
72440;DHT22;60446;50.752;4.352;2023-03-04T00:56:13;3.50;65.70
72440;DHT22;60446;50.752;4.352;2023-03-04T00:58:40;3.50;66.00
72440;DHT22;60446;50.752;4.352;2023-03-04T01:01:07;3.50;65.90
72440;DHT22;60446;50.752;4.352;2023-03-04T01:03:35;3.60;65.90
72440;DHT22;60446;50.752;4.352;2023-03-04T01:06:03;3.50;65.90
72440;DHT22;60446;50.752;4.352;2023-03-04T01:08:30;3.60;65.50
72440;DHT22;60446;50.752;4.352;2023-03-04T01:10:58;3.60;65.50
72440;DHT22;60446;50.752;4.352;2023-03-04T01:13:25;3.60;65.50
72440;DHT22;60446;50.752;4.352;2023-03-04T01:15:52;3.60;65.50
72440;DHT22;60446;50.752;4.352;2023-03-04T01:18:19;3.60;65.80
72440;DHT22;60446;50.752;4.352;2023-03-04T01:20:46;3.60;65.70
72440;DHT22;60446;50.752;4.352;2023-03-04T01:23:13;3.60;65.80
72440;DHT22;60446;50.752;4.352;2023-03-04T01:25:40;3.60;65.60
72440;DHT22;60446;50.752;4.352;2023-03-04T01:28:08;3.70;65.50
72440;DHT22;60446;50.752;4.352;2023-03-04T01:30:35;3.70;64.90
72440;DHT22;60446;50.752;4.352;2023-03-04T01:33:02;3.70;65.60
72440;DHT22;60446;50.752;4.352;2023-03-04T01:35:30;3.70;65.40
72440;DHT22;60446;50.752;4.352;2023-03-04T01:37:57;3.70;65.50
72440;DHT22;60446;50.752;4.352;2023-03-04T01:40:24;3.60;65.20
72440;DHT22;60446;50.752;4.352;2023-03-04T01:42:51;3.60;65.30
72440;DHT22;60446;50.752;4.352;2023-03-04T01:45:19;3.70;65.80
72440;DHT22;60446;50.752;4.352;2023-03-04T01:47:47;3.60;65.30
72440;DHT22;60446;50.752;4.352;2023-03-04T01:50:29;3.60;65.40
72440;DHT22;60446;50.752;4.352;2023-03-04T01:52:59;3.70;65.70
72440;DHT22;60446;50.752;4.352;2023-03-04T01:55:26;3.70;66.20
72440;DHT22;60446;50.752;4.352;2023-03-04T01:57:55;3.70;65.90
72440;DHT22;60446;50.752;4.352;2023-03-04T02:00:30;3.70;66.00
72440;DHT22;60446;50.752;4.352;2023-03-04T02:03:08;3.70;66.40
72440;DHT22;60446;50.752;4.352;2023-03-04T02:05:49;3.70;66.00
72440;DHT22;60446;50.752;4.352;2023-03-04T02:08:20;3.60;66.10
72440;DHT22;60446;50.752;4.352;2023-03-04T02:10:50;3.70;66.10
72440;DHT22;60446;50.752;4.352;2023-03-04T02:13:17;3.80;66.10
72440;DHT22;60446;50.752;4.352;2023-03-04T02:15:45;3.80;66.00
72440;DHT22;60446;50.752;4.352;2023-03-04T02:18:21;3.70;66.20
72440;DHT22;60446;50.752;4.352;2023-03-04T02:21:14;3.70;66.70
72440;DHT22;60446;50.752;4.352;2023-03-04T02:24:02;3.60;66.90
72440;DHT22;60446;50.752;4.352;2023-03-04T02:26:39;3.70;66.70
72440;DHT22;60446;50.752;4.352;2023-03-04T02:29:12;3.70;66.50
72440;DHT22;60446;50.752;4.352;2023-03-04T02:31:46;3.60;67.00
72440;DHT22;60446;50.752;4.352;2023-03-04T02:34:20;3.70;66.90
72440;DHT22;60446;50.752;4.352;2023-03-04T02:36:51;3.70;67.00
72440;DHT22;60446;50.752;4.352;2023-03-04T02:41:48;3.70;66.70
72440;DHT22;60446;50.752;4.352;2023-03-04T02:44:21;3.80;66.60
72440;DHT22;60446;50.752;4.352;2023-03-04T02:46:51;3.70;66.80
72440;DHT22;60446;50.752;4.352;2023-03-04T02:49:20;3.80;66.40
72440;DHT22;60446;50.752;4.352;2023-03-04T02:51:53;3.80;66.40
72440;DHT22;60446;50.752;4.352;2023-03-04T02:54:36;3.80;67.10
72440;DHT22;60446;50.752;4.352;2023-03-04T02:57:07;3.80;67.00
72440;DHT22;60446;50.752;4.352;2023-03-04T02:59:39;3.80;66.60
72440;DHT22;60446;50.752;4.352;2023-03-04T03:02:08;3.70;66.50
72440;DHT22;60446;50.752;4.352;2023-03-04T03:04:37;3.70;66.80
72440;DHT22;60446;50.752;4.352;2023-03-04T03:07:08;3.80;66.90
72440;DHT22;60446;50.752;4.352;2023-03-04T03:09:35;3.70;66.80
72440;DHT22;60446;50.752;4.352;2023-03-04T03:12:02;3.80;66.50
72440;DHT22;60446;50.752;4.352;2023-03-04T03:14:31;3.70;66.70
72440;DHT22;60446;50.752;4.352;2023-03-04T03:16:59;3.80;67.00
72440;DHT22;60446;50.752;4.352;2023-03-04T03:19:26;3.80;66.90
72440;DHT22;60446;50.752;4.352;2023-03-04T03:21:53;3.80;66.90
72440;DHT22;60446;50.752;4.352;2023-03-04T03:24:21;3.80;67.00
72440;DHT22;60446;50.752;4.352;2023-03-04T03:26:48;3.80;67.40
72440;DHT22;60446;50.752;4.352;2023-03-04T03:29:15;3.80;67.20
72440;DHT22;60446;50.752;4.352;2023-03-04T03:31:43;3.90;67.10
72440;DHT22;60446;50.752;4.352;2023-03-04T03:34:10;3.80;66.60
72440;DHT22;60446;50.752;4.352;2023-03-04T03:36:37;3.90;66.80
72440;DHT22;60446;50.752;4.352;2023-03-04T03:39:04;3.90;67.00
72440;DHT22;60446;50.752;4.352;2023-03-04T03:41:31;3.90;66.60
72440;DHT22;60446;50.752;4.352;2023-03-04T03:43:59;3.90;66.70
72440;DHT22;60446;50.752;4.352;2023-03-04T03:46:27;3.90;66.70
72440;DHT22;60446;50.752;4.352;2023-03-04T03:48:55;3.80;67.00
72440;DHT22;60446;50.752;4.352;2023-03-04T03:51:22;3.90;67.80
72440;DHT22;60446;50.752;4.352;2023-03-04T03:53:49;3.80;67.20
72440;DHT22;60446;50.752;4.352;2023-03-04T03:56:16;3.90;67.20
72440;DHT22;60446;50.752;4.352;2023-03-04T03:58:44;3.90;68.00
72440;DHT22;60446;50.752;4.352;2023-03-04T04:01:11;3.90;68.10
72440;DHT22;60446;50.752;4.352;2023-03-04T04:03:38;3.90;68.00
72440;DHT22;60446;50.752;4.352;2023-03-04T04:06:05;3.90;68.30
72440;DHT22;60446;50.752;4.352;2023-03-04T04:08:32;3.90;67.60
72440;DHT22;60446;50.752;4.352;2023-03-04T04:11:00;4.00;67.00
72440;DHT22;60446;50.752;4.352;2023-03-04T04:13:27;3.90;67.50
72440;DHT22;60446;50.752;4.352;2023-03-04T04:15:54;3.90;67.40
72440;DHT22;60446;50.752;4.352;2023-03-04T04:18:21;3.90;67.20
72440;DHT22;60446;50.752;4.352;2023-03-04T04:20:52;3.90;67.10
72440;DHT22;60446;50.752;4.352;2023-03-04T04:23:19;3.80;67.20
72440;DHT22;60446;50.752;4.352;2023-03-04T04:25:46;3.80;67.30
72440;DHT22;60446;50.752;4.352;2023-03-04T04:28:13;3.80;67.20
72440;DHT22;60446;50.752;4.352;2023-03-04T04:30:41;3.80;67.60
72440;DHT22;60446;50.752;4.352;2023-03-04T04:33:08;3.80;67.60
72440;DHT22;60446;50.752;4.352;2023-03-04T04:35:36;3.80;67.80
72440;DHT22;60446;50.752;4.352;2023-03-04T04:38:05;3.90;67.30
72440;DHT22;60446;50.752;4.352;2023-03-04T04:40:33;3.90;67.40
72440;DHT22;60446;50.752;4.352;2023-03-04T04:43:01;3.90;67.20
72440;DHT22;60446;50.752;4.352;2023-03-04T04:45:28;3.90;67.00
72440;DHT22;60446;50.752;4.352;2023-03-04T04:47:56;3.90;66.90
72440;DHT22;60446;50.752;4.352;2023-03-04T04:50:23;3.90;67.40
72440;DHT22;60446;50.752;4.352;2023-03-04T04:52:51;3.90;67.00
72440;DHT22;60446;50.752;4.352;2023-03-04T04:55:18;3.90;66.40
72440;DHT22;60446;50.752;4.352;2023-03-04T04:57:45;3.90;66.40
72440;DHT22;60446;50.752;4.352;2023-03-04T05:00:13;3.90;66.50
72440;DHT22;60446;50.752;4.352;2023-03-04T05:02:40;3.90;67.20
72440;DHT22;60446;50.752;4.352;2023-03-04T05:05:07;3.80;67.40
72440;DHT22;60446;50.752;4.352;2023-03-04T05:07:35;3.80;66.80
72440;DHT22;60446;50.752;4.352;2023-03-04T05:10:04;3.80;67.00
72440;DHT22;60446;50.752;4.352;2023-03-04T05:12:31;3.90;66.70
72440;DHT22;60446;50.752;4.352;2023-03-04T05:14:58;3.90;67.10
72440;DHT22;60446;50.752;4.352;2023-03-04T05:17:25;3.90;67.40
72440;DHT22;60446;50.752;4.352;2023-03-04T05:19:52;3.90;67.10
72440;DHT22;60446;50.752;4.352;2023-03-04T05:22:19;4.00;68.10
72440;DHT22;60446;50.752;4.352;2023-03-04T05:24:46;4.00;67.20
72440;DHT22;60446;50.752;4.352;2023-03-04T05:27:14;4.00;67.10
72440;DHT22;60446;50.752;4.352;2023-03-04T05:29:41;4.00;67.20
72440;DHT22;60446;50.752;4.352;2023-03-04T05:32:10;4.00;67.10
72440;DHT22;60446;50.752;4.352;2023-03-04T05:34:37;4.00;67.00
72440;DHT22;60446;50.752;4.352;2023-03-04T05:37:04;4.00;67.40
72440;DHT22;60446;50.752;4.352;2023-03-04T05:39:31;4.00;67.00
72440;DHT22;60446;50.752;4.352;2023-03-04T05:41:59;4.00;66.80
72440;DHT22;60446;50.752;4.352;2023-03-04T05:44:26;3.90;67.40
72440;DHT22;60446;50.752;4.352;2023-03-04T05:46:53;4.00;67.20
72440;DHT22;60446;50.752;4.352;2023-03-04T05:49:20;3.90;66.80
72440;DHT22;60446;50.752;4.352;2023-03-04T05:51:47;3.90;67.20
72440;DHT22;60446;50.752;4.352;2023-03-04T05:54:14;3.90;67.60
72440;DHT22;60446;50.752;4.352;2023-03-04T05:56:41;3.90;66.90
72440;DHT22;60446;50.752;4.352;2023-03-04T05:59:09;3.90;67.50
72440;DHT22;60446;50.752;4.352;2023-03-04T06:01:36;3.90;67.90
72440;DHT22;60446;50.752;4.352;2023-03-04T06:04:03;3.90;68.00
72440;DHT22;60446;50.752;4.352;2023-03-04T06:06:30;3.90;67.90
72440;DHT22;60446;50.752;4.352;2023-03-04T06:08:57;3.90;67.70
72440;DHT22;60446;50.752;4.352;2023-03-04T06:11:26;3.90;67.90
72440;DHT22;60446;50.752;4.352;2023-03-04T06:13:53;3.90;67.80
72440;DHT22;60446;50.752;4.352;2023-03-04T06:16:20;3.90;68.10
72440;DHT22;60446;50.752;4.352;2023-03-04T06:18:47;3.90;67.90
72440;DHT22;60446;50.752;4.352;2023-03-04T06:21:14;3.90;68.00
72440;DHT22;60446;50.752;4.352;2023-03-04T06:23:42;3.90;67.70
72440;DHT22;60446;50.752;4.352;2023-03-04T06:26:10;3.90;68.10
72440;DHT22;60446;50.752;4.352;2023-03-04T06:28:42;3.90;68.10
72440;DHT22;60446;50.752;4.352;2023-03-04T06:31:09;3.90;67.90
72440;DHT22;60446;50.752;4.352;2023-03-04T06:33:37;3.90;67.80
72440;DHT22;60446;50.752;4.352;2023-03-04T06:36:04;3.90;67.70
72440;DHT22;60446;50.752;4.352;2023-03-04T06:38:32;3.90;67.90
72440;DHT22;60446;50.752;4.352;2023-03-04T06:41:10;3.90;68.30
72440;DHT22;60446;50.752;4.352;2023-03-04T06:43:38;4.00;68.10
72440;DHT22;60446;50.752;4.352;2023-03-04T06:46:06;4.00;68.00
72440;DHT22;60446;50.752;4.352;2023-03-04T06:48:34;4.00;68.10
72440;DHT22;60446;50.752;4.352;2023-03-04T06:51:10;4.00;68.30
72440;DHT22;60446;50.752;4.352;2023-03-04T06:53:38;4.00;68.10
72440;DHT22;60446;50.752;4.352;2023-03-04T06:56:08;4.00;68.20
72440;DHT22;60446;50.752;4.352;2023-03-04T06:58:37;4.00;68.20
72440;DHT22;60446;50.752;4.352;2023-03-04T07:01:20;4.00;68.40
72440;DHT22;60446;50.752;4.352;2023-03-04T07:03:50;4.00;68.10
72440;DHT22;60446;50.752;4.352;2023-03-04T07:06:20;4.00;68.40
72440;DHT22;60446;50.752;4.352;2023-03-04T07:08:49;4.00;68.30
72440;DHT22;60446;50.752;4.352;2023-03-04T07:11:19;4.00;68.10
72440;DHT22;60446;50.752;4.352;2023-03-04T07:13:48;4.00;68.30
72440;DHT22;60446;50.752;4.352;2023-03-04T07:16:19;4.10;68.10
72440;DHT22;60446;50.752;4.352;2023-03-04T07:18:48;4.10;68.00
72440;DHT22;60446;50.752;4.352;2023-03-04T07:21:16;4.00;68.40
72440;DHT22;60446;50.752;4.352;2023-03-04T07:23:43;4.10;68.30
72440;DHT22;60446;50.752;4.352;2023-03-04T07:26:11;4.10;68.70
72440;DHT22;60446;50.752;4.352;2023-03-04T07:28:38;4.10;69.20
72440;DHT22;60446;50.752;4.352;2023-03-04T07:31:17;4.20;68.90
72440;DHT22;60446;50.752;4.352;2023-03-04T07:33:58;4.20;68.50
72440;DHT22;60446;50.752;4.352;2023-03-04T07:36:29;4.30;68.30
72440;DHT22;60446;50.752;4.352;2023-03-04T07:38:57;4.40;67.90
72440;DHT22;60446;50.752;4.352;2023-03-04T07:41:25;4.40;68.00
72440;DHT22;60446;50.752;4.352;2023-03-04T07:43:55;4.30;68.20
72440;DHT22;60446;50.752;4.352;2023-03-04T07:46:23;4.30;67.90
72440;DHT22;60446;50.752;4.352;2023-03-04T07:48:51;4.40;67.70
72440;DHT22;60446;50.752;4.352;2023-03-04T07:51:21;4.40;67.80
72440;DHT22;60446;50.752;4.352;2023-03-04T07:53:56;4.40;67.80
72440;DHT22;60446;50.752;4.352;2023-03-04T07:56:28;4.40;68.10
72440;DHT22;60446;50.752;4.352;2023-03-04T07:58:57;4.50;68.00
72440;DHT22;60446;50.752;4.352;2023-03-04T08:01:30;4.50;67.80
72440;DHT22;60446;50.752;4.352;2023-03-04T08:04:00;4.60;67.60
72440;DHT22;60446;50.752;4.352;2023-03-04T08:06:28;4.60;68.10
72440;DHT22;60446;50.752;4.352;2023-03-04T08:09:01;4.60;68.10
72440;DHT22;60446;50.752;4.352;2023-03-04T08:11:32;4.60;68.40
72440;DHT22;60446;50.752;4.352;2023-03-04T08:14:01;4.60;68.50
72440;DHT22;60446;50.752;4.352;2023-03-04T08:16:28;4.60;68.40
72440;DHT22;60446;50.752;4.352;2023-03-04T08:18:57;4.60;67.60
72440;DHT22;60446;50.752;4.352;2023-03-04T08:21:26;4.60;67.30
72440;DHT22;60446;50.752;4.352;2023-03-04T08:23:54;4.50;66.60
72440;DHT22;60446;50.752;4.352;2023-03-04T08:26:30;4.50;66.80
72440;DHT22;60446;50.752;4.352;2023-03-04T08:29:08;4.50;66.40
72440;DHT22;60446;50.752;4.352;2023-03-04T08:31:37;4.50;66.90
72440;DHT22;60446;50.752;4.352;2023-03-04T08:34:06;4.50;66.90
72440;DHT22;60446;50.752;4.352;2023-03-04T08:36:34;4.50;66.90
72440;DHT22;60446;50.752;4.352;2023-03-04T08:39:02;4.50;66.40
72440;DHT22;60446;50.752;4.352;2023-03-04T08:41:30;4.50;66.60
72440;DHT22;60446;50.752;4.352;2023-03-04T08:43:58;4.50;66.60
72440;DHT22;60446;50.752;4.352;2023-03-04T08:46:26;4.50;66.90
72440;DHT22;60446;50.752;4.352;2023-03-04T08:48:53;4.60;67.00
72440;DHT22;60446;50.752;4.352;2023-03-04T08:51:21;4.60;66.90
72440;DHT22;60446;50.752;4.352;2023-03-04T08:53:49;4.60;67.10
72440;DHT22;60446;50.752;4.352;2023-03-04T08:56:17;4.70;66.30
72440;DHT22;60446;50.752;4.352;2023-03-04T08:58:45;4.70;66.90
72440;DHT22;60446;50.752;4.352;2023-03-04T09:01:13;4.60;66.50
72440;DHT22;60446;50.752;4.352;2023-03-04T09:03:43;4.60;66.70
72440;DHT22;60446;50.752;4.352;2023-03-04T09:06:16;4.70;66.50
72440;DHT22;60446;50.752;4.352;2023-03-04T09:08:44;4.60;66.70
72440;DHT22;60446;50.752;4.352;2023-03-04T09:11:36;4.60;67.20
72440;DHT22;60446;50.752;4.352;2023-03-04T09:14:04;4.60;67.00
72440;DHT22;60446;50.752;4.352;2023-03-04T09:16:50;4.60;67.00
72440;DHT22;60446;50.752;4.352;2023-03-04T09:19:33;4.60;67.00
72440;DHT22;60446;50.752;4.352;2023-03-04T09:22:21;4.60;67.90
72440;DHT22;60446;50.752;4.352;2023-03-04T09:25:04;4.60;67.80
72440;DHT22;60446;50.752;4.352;2023-03-04T09:27:45;4.60;68.50
72440;DHT22;60446;50.752;4.352;2023-03-04T09:30:25;4.60;68.40
72440;DHT22;60446;50.752;4.352;2023-03-04T09:32:54;4.50;68.60
72440;DHT22;60446;50.752;4.352;2023-03-04T09:35:24;4.60;69.00
72440;DHT22;60446;50.752;4.352;2023-03-04T09:37:52;4.60;68.70
72440;DHT22;60446;50.752;4.352;2023-03-04T09:40:22;4.60;69.30
72440;DHT22;60446;50.752;4.352;2023-03-04T09:42:55;4.60;69.20
72440;DHT22;60446;50.752;4.352;2023-03-04T09:45:32;4.60;69.20
72440;DHT22;60446;50.752;4.352;2023-03-04T09:48:04;4.60;69.00
72440;DHT22;60446;50.752;4.352;2023-03-04T09:50:33;4.70;69.20
72440;DHT22;60446;50.752;4.352;2023-03-04T09:55:50;4.80;68.90
72440;DHT22;60446;50.752;4.352;2023-03-04T10:01:29;4.90;68.20
72440;DHT22;60446;50.752;4.352;2023-03-04T10:04:02;4.80;68.50
72440;DHT22;60446;50.752;4.352;2023-03-04T10:06:39;4.90;68.70
72440;DHT22;60446;50.752;4.352;2023-03-04T10:09:18;5.00;68.40
72440;DHT22;60446;50.752;4.352;2023-03-04T10:12:10;5.00;68.10
72440;DHT22;60446;50.752;4.352;2023-03-04T10:14:45;5.00;68.10
72440;DHT22;60446;50.752;4.352;2023-03-04T10:17:23;5.00;68.40
72440;DHT22;60446;50.752;4.352;2023-03-04T10:20:14;5.00;68.50
72440;DHT22;60446;50.752;4.352;2023-03-04T10:22:58;5.00;68.20
72440;DHT22;60446;50.752;4.352;2023-03-04T10:25:28;5.00;68.10
72440;DHT22;60446;50.752;4.352;2023-03-04T10:27:59;5.00;68.10
72440;DHT22;60446;50.752;4.352;2023-03-04T10:33:30;5.00;68.00
72440;DHT22;60446;50.752;4.352;2023-03-04T10:36:04;5.00;68.20
72440;DHT22;60446;50.752;4.352;2023-03-04T10:38:38;5.10;68.20
72440;DHT22;60446;50.752;4.352;2023-03-04T10:41:21;5.30;67.60
72440;DHT22;60446;50.752;4.352;2023-03-04T10:44:13;5.40;66.90
72440;DHT22;60446;50.752;4.352;2023-03-04T10:46:47;5.40;67.10
72440;DHT22;60446;50.752;4.352;2023-03-04T10:49:17;5.40;66.90
72440;DHT22;60446;50.752;4.352;2023-03-04T10:54:46;5.30;67.30
72440;DHT22;60446;50.752;4.352;2023-03-04T10:57:18;5.40;67.30
72440;DHT22;60446;50.752;4.352;2023-03-04T10:59:54;5.50;67.20
72440;DHT22;60446;50.752;4.352;2023-03-04T11:02:36;5.60;67.10
72440;DHT22;60446;50.752;4.352;2023-03-04T11:07:58;5.70;67.00
72440;DHT22;60446;50.752;4.352;2023-03-04T11:10:39;5.80;67.30
72440;DHT22;60446;50.752;4.352;2023-03-04T11:13:20;6.00;66.40
72440;DHT22;60446;50.752;4.352;2023-03-04T11:18:51;6.50;64.90
72440;DHT22;60446;50.752;4.352;2023-03-04T11:21:22;6.60;64.40
72440;DHT22;60446;50.752;4.352;2023-03-04T11:23:58;6.70;63.90
72440;DHT22;60446;50.752;4.352;2023-03-04T11:26:38;6.60;64.30
72440;DHT22;60446;50.752;4.352;2023-03-04T11:29:24;6.40;64.40
72440;DHT22;60446;50.752;4.352;2023-03-04T11:32:16;6.50;64.30
72440;DHT22;60446;50.752;4.352;2023-03-04T11:37:52;6.30;65.20
72440;DHT22;60446;50.752;4.352;2023-03-04T11:40:43;5.90;65.70
72440;DHT22;60446;50.752;4.352;2023-03-04T11:43:29;6.00;65.60
72440;DHT22;60446;50.752;4.352;2023-03-04T12:00:50;6.00;65.80
72440;DHT22;60446;50.752;4.352;2023-03-04T12:03:50;6.00;65.90
72440;DHT22;60446;50.752;4.352;2023-03-04T12:32:01;6.50;64.10
72440;DHT22;60446;50.752;4.352;2023-03-04T12:39:56;6.50;64.70
72440;DHT22;60446;50.752;4.352;2023-03-04T12:45:38;6.60;64.60
72440;DHT22;60446;50.752;4.352;2023-03-04T12:48:36;6.60;64.60
72440;DHT22;60446;50.752;4.352;2023-03-04T12:51:35;6.50;63.90
72440;DHT22;60446;50.752;4.352;2023-03-04T12:54:36;6.50;65.00
72440;DHT22;60446;50.752;4.352;2023-03-04T12:57:16;6.70;65.10
72440;DHT22;60446;50.752;4.352;2023-03-04T13:22:46;7.00;63.60
72440;DHT22;60446;50.752;4.352;2023-03-04T13:25:34;6.90;63.40
72440;DHT22;60446;50.752;4.352;2023-03-04T13:43:47;6.50;65.10
72440;DHT22;60446;50.752;4.352;2023-03-04T13:51:23;6.50;64.90
72440;DHT22;60446;50.752;4.352;2023-03-04T13:56:36;6.60;65.00
72440;DHT22;60446;50.752;4.352;2023-03-04T14:04:19;6.70;65.00
72440;DHT22;60446;50.752;4.352;2023-03-04T14:06:55;6.80;64.70
72440;DHT22;60446;50.752;4.352;2023-03-04T14:09:33;6.70;64.90
72440;DHT22;60446;50.752;4.352;2023-03-04T14:12:12;6.60;65.00
72440;DHT22;60446;50.752;4.352;2023-03-04T14:14:49;6.70;66.10
72440;DHT22;60446;50.752;4.352;2023-03-04T14:17:26;6.90;65.20
72440;DHT22;60446;50.752;4.352;2023-03-04T14:19:56;7.00;64.40
72440;DHT22;60446;50.752;4.352;2023-03-04T14:22:26;7.00;64.50
72440;DHT22;60446;50.752;4.352;2023-03-04T14:27:40;7.00;64.90
72440;DHT22;60446;50.752;4.352;2023-03-04T14:33:23;7.00;65.00
72440;DHT22;60446;50.752;4.352;2023-03-04T14:35:57;7.00;65.30
72440;DHT22;60446;50.752;4.352;2023-03-04T14:38:37;7.00;65.20
72440;DHT22;60446;50.752;4.352;2023-03-04T14:41:18;6.90;65.60
72440;DHT22;60446;50.752;4.352;2023-03-04T14:44:07;7.00;65.50
72440;DHT22;60446;50.752;4.352;2023-03-04T14:46:42;6.90;65.90
72440;DHT22;60446;50.752;4.352;2023-03-04T14:49:32;6.90;66.30
72440;DHT22;60446;50.752;4.352;2023-03-04T14:52:01;6.90;66.60
72440;DHT22;60446;50.752;4.352;2023-03-04T14:54:40;6.90;66.30
72440;DHT22;60446;50.752;4.352;2023-03-04T14:57:28;6.80;67.20
72440;DHT22;60446;50.752;4.352;2023-03-04T15:02:59;6.90;66.80
72440;DHT22;60446;50.752;4.352;2023-03-04T15:05:31;6.80;67.00
72440;DHT22;60446;50.752;4.352;2023-03-04T15:08:03;6.80;67.20
72440;DHT22;60446;50.752;4.352;2023-03-04T15:11:04;6.70;67.60
72440;DHT22;60446;50.752;4.352;2023-03-04T15:13:41;6.70;67.90
72440;DHT22;60446;50.752;4.352;2023-03-04T15:16:14;6.80;68.40
72440;DHT22;60446;50.752;4.352;2023-03-04T15:19:02;6.90;68.50
72440;DHT22;60446;50.752;4.352;2023-03-04T15:21:40;6.90;67.70
72440;DHT22;60446;50.752;4.352;2023-03-04T15:24:09;6.80;68.10
72440;DHT22;60446;50.752;4.352;2023-03-04T15:26:39;6.70;68.60
72440;DHT22;60446;50.752;4.352;2023-03-04T15:29:19;6.70;68.40
72440;DHT22;60446;50.752;4.352;2023-03-04T15:31:47;6.70;69.10
72440;DHT22;60446;50.752;4.352;2023-03-04T15:34:16;6.70;68.70
72440;DHT22;60446;50.752;4.352;2023-03-04T15:36:47;6.60;69.20
72440;DHT22;60446;50.752;4.352;2023-03-04T15:39:16;6.60;70.00
72440;DHT22;60446;50.752;4.352;2023-03-04T15:41:44;6.50;70.30
72440;DHT22;60446;50.752;4.352;2023-03-04T15:44:16;6.50;70.60
72440;DHT22;60446;50.752;4.352;2023-03-04T15:46:43;6.50;70.40
72440;DHT22;60446;50.752;4.352;2023-03-04T15:49:10;6.60;70.50
72440;DHT22;60446;50.752;4.352;2023-03-04T15:51:37;6.60;70.20
72440;DHT22;60446;50.752;4.352;2023-03-04T15:54:08;6.60;70.40
72440;DHT22;60446;50.752;4.352;2023-03-04T15:56:40;6.70;70.30
72440;DHT22;60446;50.752;4.352;2023-03-04T15:59:12;6.80;70.00
72440;DHT22;60446;50.752;4.352;2023-03-04T16:01:40;6.70;69.80
72440;DHT22;60446;50.752;4.352;2023-03-04T16:04:13;6.80;69.50
72440;DHT22;60446;50.752;4.352;2023-03-04T16:06:44;6.90;69.40
72440;DHT22;60446;50.752;4.352;2023-03-04T16:09:15;6.90;69.30
72440;DHT22;60446;50.752;4.352;2023-03-04T16:11:44;6.80;69.30
72440;DHT22;60446;50.752;4.352;2023-03-04T16:14:14;6.90;69.00
72440;DHT22;60446;50.752;4.352;2023-03-04T16:16:42;6.80;69.10
72440;DHT22;60446;50.752;4.352;2023-03-04T16:19:10;6.80;69.20
72440;DHT22;60446;50.752;4.352;2023-03-04T16:21:37;7.00;68.60
72440;DHT22;60446;50.752;4.352;2023-03-04T16:24:04;7.00;68.70
72440;DHT22;60446;50.752;4.352;2023-03-04T16:26:32;6.90;68.80
72440;DHT22;60446;50.752;4.352;2023-03-04T16:28:59;6.90;69.20
72440;DHT22;60446;50.752;4.352;2023-03-04T16:31:28;6.80;69.30
72440;DHT22;60446;50.752;4.352;2023-03-04T16:33:55;6.80;69.60
72440;DHT22;60446;50.752;4.352;2023-03-04T16:36:25;6.80;69.30
72440;DHT22;60446;50.752;4.352;2023-03-04T16:39:06;6.90;68.90
72440;DHT22;60446;50.752;4.352;2023-03-04T16:41:36;6.80;68.90
72440;DHT22;60446;50.752;4.352;2023-03-04T16:44:03;6.80;68.90
72440;DHT22;60446;50.752;4.352;2023-03-04T16:46:31;6.70;69.30
72440;DHT22;60446;50.752;4.352;2023-03-04T16:48:59;6.70;69.30
72440;DHT22;60446;50.752;4.352;2023-03-04T16:51:26;6.70;69.60
72440;DHT22;60446;50.752;4.352;2023-03-04T16:53:57;6.70;69.20
72440;DHT22;60446;50.752;4.352;2023-03-04T16:56:26;6.70;69.10
72440;DHT22;60446;50.752;4.352;2023-03-04T16:58:54;6.70;69.20
72440;DHT22;60446;50.752;4.352;2023-03-04T17:01:24;6.60;69.10
72440;DHT22;60446;50.752;4.352;2023-03-04T17:03:53;6.50;69.30
72440;DHT22;60446;50.752;4.352;2023-03-04T17:06:22;6.60;69.20
72440;DHT22;60446;50.752;4.352;2023-03-04T17:08:50;6.60;68.90
72440;DHT22;60446;50.752;4.352;2023-03-04T17:11:20;6.60;68.90
72440;DHT22;60446;50.752;4.352;2023-03-04T17:13:50;6.40;69.40
72440;DHT22;60446;50.752;4.352;2023-03-04T17:16:17;6.40;69.70
72440;DHT22;60446;50.752;4.352;2023-03-04T17:18:45;6.40;69.90
72440;DHT22;60446;50.752;4.352;2023-03-04T17:21:15;6.40;69.90
72440;DHT22;60446;50.752;4.352;2023-03-04T17:23:46;6.40;70.00
72440;DHT22;60446;50.752;4.352;2023-03-04T17:26:13;6.40;69.90
72440;DHT22;60446;50.752;4.352;2023-03-04T17:28:42;6.40;70.20
72440;DHT22;60446;50.752;4.352;2023-03-04T17:31:14;6.40;70.30
72440;DHT22;60446;50.752;4.352;2023-03-04T17:33:44;6.40;70.30
72440;DHT22;60446;50.752;4.352;2023-03-04T17:36:13;6.30;70.50
72440;DHT22;60446;50.752;4.352;2023-03-04T17:38:42;6.30;70.70
72440;DHT22;60446;50.752;4.352;2023-03-04T17:41:12;6.30;70.90
72440;DHT22;60446;50.752;4.352;2023-03-04T17:43:46;6.30;71.10
72440;DHT22;60446;50.752;4.352;2023-03-04T17:46:19;6.20;71.30
72440;DHT22;60446;50.752;4.352;2023-03-04T17:48:50;6.30;71.20
72440;DHT22;60446;50.752;4.352;2023-03-04T17:51:28;6.30;71.40
72440;DHT22;60446;50.752;4.352;2023-03-04T17:54:04;6.20;71.50
72440;DHT22;60446;50.752;4.352;2023-03-04T17:56:35;6.20;71.70
72440;DHT22;60446;50.752;4.352;2023-03-04T17:59:05;6.20;71.70
72440;DHT22;60446;50.752;4.352;2023-03-04T18:01:34;6.10;71.80
72440;DHT22;60446;50.752;4.352;2023-03-04T18:04:01;6.10;72.00
72440;DHT22;60446;50.752;4.352;2023-03-04T18:06:28;6.20;72.00
72440;DHT22;60446;50.752;4.352;2023-03-04T18:08:56;6.20;72.00
72440;DHT22;60446;50.752;4.352;2023-03-04T18:11:24;6.20;71.80
72440;DHT22;60446;50.752;4.352;2023-03-04T18:13:52;6.20;71.60
72440;DHT22;60446;50.752;4.352;2023-03-04T18:16:22;6.20;71.60
72440;DHT22;60446;50.752;4.352;2023-03-04T18:18:53;6.20;72.10
72440;DHT22;60446;50.752;4.352;2023-03-04T18:21:26;6.20;72.30
72440;DHT22;60446;50.752;4.352;2023-03-04T18:23:55;6.20;72.60